Flight Track Log - Related Links

Times and Time Zones

All times are in EDT time to prevent confusion due to time zone crossing. See the SWA279 flight status page for this flight to view local times or setup timezone preferences in your user account.

Time Position Orientation Groundspeed Altitude Reporting Facility
EDT Latitude Longitude Course Direction KTS MPH feet Rate Location/Type
Wed 08:03:25 PM 33.9333 -118.5333 256° West 250 288 3,900  Level Southern California TRACON
Wed 08:03:40 PM 33.9400 -118.5508 295° West 245 282 4,500 2,805 Climbing Los Angeles Center
Wed 08:04:42 PM 33.9397 -118.6422 270° West 278 320 7,500 2,177 Climbing Los Angeles Center
Wed 08:05:44 PM 33.9986 -118.6956 323° Northwest 267 307 9,000 726 Climbing Los Angeles Center
Wed 08:06:46 PM 34.0675 -118.6889 North 254 292 9,000 145 Level Los Angeles Center
Wed 08:07:48 PM 34.1267 -118.6500 29° Northeast 247 284 9,300 1,645 Climbing Los Angeles Center
Wed 08:08:50 PM 34.1978 -118.6703 347° North 260 299 12,400 3,072 Climbing Los Angeles Center
Wed 08:09:53 PM 34.2817 -118.6958 346° North 304 350 15,700 3,145 Climbing Los Angeles Center
Wed 08:10:54 PM 34.3703 -118.7244 345° North 327 376 18,900 3,268 Climbing Los Angeles Center
Wed 08:11:56 PM 34.4825 -118.7592 346° North 344 396 22,400 2,758 Climbing Los Angeles Center
Wed 08:12:58 PM 34.5789 -118.7908 345° North 357 411 24,600 2,226 Climbing Los Angeles Center
Wed 08:14:00 PM 34.6814 -118.8233 345° North 376 433 27,000 2,081 Climbing Los Angeles Center
Wed 08:15:02 PM 34.7853 -118.8567 345° North 384 442 28,900 1,694 Climbing Los Angeles Center
Wed 08:16:04 PM 34.8975 -118.8769 352° North 407 468 30,500 1,632 Climbing Los Angeles Center
Wed 08:17:07 PM 35.0106 -118.8950 353° North 418 481 32,300 2,064 Climbing Los Angeles Center
Wed 08:18:09 PM 35.1481 -118.9169 353° North 416 479 34,800 1,790 Climbing Los Angeles Center
Wed 08:19:11 PM 35.2619 -118.9342 353° North 416 479 36,000 581 Climbing Los Angeles Center
Wed 08:20:13 PM 35.3731 -118.9514 353° North 407 468 36,000 823 Level Los Angeles Center
Wed 08:21:15 PM 35.4839 -118.9700 352° North 404 465 37,700 1,403 Climbing Los Angeles Center
Wed 08:22:17 PM 35.5919 -118.9869 353° North 398 458 38,900 1,037 Climbing Los Angeles Center
Wed 08:22:36 PM 35.6372 -118.9947 352° North 404 465 39,100 525 Climbing Oakland Center
Wed 08:23:37 PM 35.7478 -119.0125 353° North 404 465 39,600 443 Climbing Oakland Center
Wed 08:24:38 PM 35.8636 -119.0314 352° North 413 475 40,000 197 Climbing Oakland Center
Wed 08:25:39 PM 35.9806 -119.0511 352° North 421 484 40,000  Level Oakland Center
Wed 08:26:41 PM 36.0942 -119.0697 352° North 417 480 40,000  Level Oakland Center
Wed 08:27:42 PM 36.2303 -119.0914 353° North 414 476 40,000  Level Oakland Center
Wed 08:28:43 PM 36.3419 -119.1092 353° North 410 472 40,000  Level Oakland Center
Wed 08:29:44 PM 36.4528 -119.1275 352° North 403 464 40,000  Level Oakland Center
Wed 08:30:45 PM 36.5625 -119.1458 352° North 399 459 40,000  Level Oakland Center
Wed 08:31:46 PM 36.6750 -119.1647 352° North 408 470 40,000 -492 Level Oakland Center
Wed 08:32:47 PM 36.7869 -119.1842 352° North 406 467 39,000 -934 Descending Oakland Center
Wed 08:33:48 PM 36.8972 -119.2019 353° North 403 464 38,100 -639 Descending Oakland Center
Wed 08:34:49 PM 37.0025 -119.2200 352° North 384 442 37,700 -639 Descending Oakland Center
Wed 08:35:50 PM 37.1097 -119.2389 352° North 393 452 36,800 -1,122 Descending Oakland Center
Wed 08:36:52 PM 37.2192 -119.2558 353° North 396 456 35,400 -2,098 Descending Oakland Center
Wed 08:37:53 PM 37.3450 -119.2756 353° North 378 435 32,500 -2,656 Descending Oakland Center
Wed 08:38:54 PM 37.4506 -119.2947 352° North 385 443 30,000 -1,230 Descending Oakland Center
Wed 08:39:55 PM 37.5578 -119.3136 352° North 388 447 30,000  Level Oakland Center
Wed 08:40:56 PM 37.6628 -119.3300 353° North 385 443 30,000 -197 Level Oakland Center
Wed 08:41:57 PM 37.7686 -119.3572 349° North 388 447 29,600 -689 Descending Oakland Center
Wed 08:42:58 PM 37.8736 -119.4003 342° North 397 457 28,600 -984 Descending Oakland Center
Wed 08:43:59 PM 37.9794 -119.4417 343° North 397 457 27,600 -984 Descending Oakland Center
Wed 08:45:00 PM 38.0883 -119.4817 344° North 404 465 26,600 -976 Descending Oakland Center
Wed 08:46:02 PM 38.1933 -119.5242 342° North 399 459 25,600 -1,024 Descending Oakland Center
Wed 08:47:03 PM 38.2969 -119.5639 343° North 392 451 24,500 -787 Descending Oakland Center
Wed 08:48:04 PM 38.4158 -119.6114 343° North 392 451 24,000 -246 Descending Oakland Center
Wed 08:49:05 PM 38.5189 -119.6525 343° North 390 449 24,000 -1,525 Level Oakland Center
Wed 08:50:06 PM 38.6203 -119.6928 343° North 382 440 20,900 -2,780 Descending Oakland Center
Wed 08:51:08 PM 38.7219 -119.7331 343° North 381 438 18,300 -2,439 Descending Oakland Center
Wed 08:52:09 PM 38.8167 -119.7700 343° North 363 418 15,900 -2,410 Descending Oakland Center
Wed 08:53:10 PM 38.9114 -119.7714 359° North 342 394 13,400 -2,656 Descending Oakland Center
Wed 08:54:11 PM 39.0039 -119.7703 North 336 387 10,500 -1,672 Descending Oakland Center
Wed 08:55:12 PM 39.0975 -119.7700 360° North 335 386 10,000 -488 Descending Oakland Center
Wed 08:56:14 PM 39.1981 -119.7697 360° North 322 371 9,500 -537 Descending Oakland Center
Wed 08:57:15 PM 39.2608 -119.7689 North 271 312 8,900 -541 Descending Oakland Center
Wed 08:58:16 PM 39.3164 -119.7639 North 255 293 8,400 -1,134 Descending Oakland Center
Wed 08:59:59 PM 39.4167 -119.7667 359° North 169 194 5,800 -1,261 Descending Northern Cal TRACON
Wed 09:00:53 PM 39.4500 -119.7667 360° North 144 166 5,100 -778 Descending Northern Cal TRACON
Wed 09:02:00 PM 39.4833 -119.7667 North  Level FlightAware Approximate
Wed 09:09:00 PM 39.4991 -119.7681 North  Level Estimated
Wed 09:10:00 PM 39.4991 -119.7681 North  Level Estimated

Login

Don't have an account? Register now (free) for customized features, flight alerts, and more!